Lady Ann Magee — 9HA2775 — position and weather

sailwx.info

Track history (hours):
 
Tides and Currents Weather Stations Pressure Air Temp Water Temp Dewpoint Dewpoint Depression Visibility Wind Speed Wind Dir Waves Ship Positions

Lady Ann Magee

Last reported at 2014-Dec-15 10:16 UTC. Time now 2014-Dec-22 03:29 UTC.
Position N 36°05' W 005°21'.

Length 50 m; draft 3.4 m.

Type: Ship. MMSI: 215660000.

Date/timePositionNaut miles runAvg speedWind from/ knotsBaromVisibWave heightAir tempDewpointWater temp
2014-Dec-15 10:16N 36°05' W 005°21'40411.6
2014-Dec-13 23:33N 38°46' E 002°26'1211.7
2014-Dec-13 22:33N 38°53' E 002°38'1211.7
2014-Dec-13 21:33N 38°59' E 002°51'1111.3
2014-Dec-13 20:33N 39°05' E 003°03'1111.3
2014-Dec-13 19:33N 39°11' E 003°15'1413.3
2014-Dec-13 18:31N 39°18' E 003°30'27111.3
2014-Dec-12 18:30N 42°53' E 007°09'1112.2
2014-Dec-12 17:33N 43°02' E 007°18'  
Track history (hours):
 
Tides and Currents Weather Stations Pressure Air Temp Water Temp Dewpoint Dewpoint Depression Visibility Wind Speed Wind Dir Waves Ship Positions

Lady Ann Magee

Last reported at 2014-Dec-15 10:16 UTC. Time now 2014-Dec-22 03:29 UTC.
Position N 36°05' W 005°21'.

Length 50 m; draft 3.4 m.

Type: Ship. MMSI: 215660000.

Date/timePositionNaut miles runAvg speedWind from/ knotsBaromVisibWave heightAir tempDewpointWater temp
2014-Dec-15 10:16N 36°05' W 005°21'40411.6
2014-Dec-13 23:33N 38°46' E 002°26'1211.7
2014-Dec-13 22:33N 38°53' E 002°38'1211.7
2014-Dec-13 21:33N 38°59' E 002°51'1111.3
2014-Dec-13 20:33N 39°05' E 003°03'1111.3
2014-Dec-13 19:33N 39°11' E 003°15'1413.3
2014-Dec-13 18:31N 39°18' E 003°30'27111.3
2014-Dec-12 18:30N 42°53' E 007°09'1112.2
2014-Dec-12 17:33N 43°02' E 007°18'  

Dump ship's entire track history